createdAt,value
2023-03-30T00:01:14.888Z,5.90
2023-03-30T00:03:45.383Z,1.93
2023-03-30T00:06:14.707Z,2.33
2023-03-30T00:08:41.414Z,3.83
2023-03-30T00:11:11.873Z,4.03
2023-03-30T00:13:39.467Z,5.90
2023-03-30T00:16:08.115Z,3.63
2023-03-30T00:18:36.694Z,3.47
2023-03-30T00:21:04.399Z,3.03
2023-03-30T00:23:32.253Z,2.83
2023-03-30T00:25:59.017Z,5.40
2023-03-30T00:28:26.334Z,2.70
2023-03-30T00:30:53.716Z,5.03
2023-03-30T00:33:30.246Z,3.73
2023-03-30T00:36:00.737Z,3.17
2023-03-30T00:38:27.573Z,2.10
2023-03-30T00:40:57.987Z,3.63
2023-03-30T00:43:26.343Z,4.03
2023-03-30T00:45:53.249Z,3.60
2023-03-30T00:48:25.050Z,3.03
2023-03-30T00:51:01.592Z,4.60
2023-03-30T00:53:38.580Z,2.50
2023-03-30T00:56:07.642Z,3.73
2023-03-30T00:58:37.109Z,3.63
2023-03-30T01:01:07.770Z,4.67
2023-03-30T01:03:39.278Z,4.80
2023-03-30T01:06:07.733Z,4.63
2023-03-30T01:08:37.100Z,5.87
2023-03-30T01:11:06.497Z,3.93
2023-03-30T01:13:37.993Z,7.83
2023-03-30T01:16:40.936Z,2.80
2023-03-30T01:19:22.092Z,2.93
2023-03-30T01:22:27.670Z,3.20
2023-03-30T01:25:23.959Z,7.60
2023-03-30T01:27:56.306Z,2.47
2023-03-30T01:30:26.341Z,2.83
2023-03-30T01:33:01.946Z,4.93
2023-03-30T01:35:37.124Z,5.37
2023-03-30T01:38:25.912Z,2.23
2023-03-30T01:41:07.804Z,5.83
2023-03-30T01:43:42.889Z,2.60
2023-03-30T01:46:31.532Z,4.77
2023-03-30T01:49:07.497Z,4.97
2023-03-30T01:51:40.458Z,5.40
2023-03-30T01:54:16.377Z,3.40
2023-03-30T01:56:54.020Z,4.47
2023-03-30T01:59:28.996Z,5.23
2023-03-30T02:02:00.629Z,4.73
2023-03-30T02:04:29.744Z,4.23
2023-03-30T02:07:02.014Z,5.83
2023-03-30T02:09:30.510Z,3.50
2023-03-30T02:11:57.893Z,3.43
2023-03-30T02:14:27.732Z,6.97
2023-03-30T02:17:02.090Z,4.17
2023-03-30T02:19:30.063Z,6.40
2023-03-30T02:21:56.798Z,4.47
2023-03-30T02:24:27.120Z,3.03
2023-03-30T02:26:55.011Z,12.13
2023-03-30T02:29:25.062Z,4.00
2023-03-30T02:31:56.314Z,6.27
2023-03-30T02:35:00.724Z,5.07
2023-03-30T02:37:46.919Z,5.93
2023-03-30T02:40:32.133Z,3.67
2023-03-30T02:43:17.281Z,7.30
2023-03-30T02:46:09.530Z,8.87
2023-03-30T02:48:51.936Z,5.00
2023-03-30T02:51:40.795Z,11.50
2023-03-30T02:54:16.296Z,8.00
2023-03-30T02:57:11.991Z,7.93
2023-03-30T03:00:00.715Z,6.67
2023-03-30T03:02:40.177Z,7.77
2023-03-30T03:05:12.201Z,6.93
2023-03-30T03:07:40.604Z,8.53
2023-03-30T03:10:07.939Z,6.73
2023-03-30T03:12:35.358Z,8.53
2023-03-30T03:15:02.012Z,6.63
2023-03-30T03:17:34.371Z,9.27
2023-03-30T03:20:03.862Z,10.10
2023-03-30T03:22:31.149Z,6.37
2023-03-30T03:24:57.959Z,6.40
2023-03-30T03:27:24.681Z,12.80
2023-03-30T03:29:51.299Z,8.43
2023-03-30T03:32:17.965Z,8.77
2023-03-30T03:34:45.711Z,11.30
2023-03-30T03:37:12.597Z,8.83
2023-03-30T03:39:39.568Z,9.67
2023-03-30T03:42:06.922Z,4.60
2023-03-30T03:44:33.795Z,10.90
2023-03-30T03:47:00.653Z,9.60
2023-03-30T03:49:27.294Z,12.07
2023-03-30T03:51:54.140Z,9.17
2023-03-30T03:54:21.066Z,5.70
2023-03-30T03:56:47.709Z,7.53
2023-03-30T03:59:14.371Z,7.27
2023-03-30T04:01:40.975Z,9.90
2023-03-30T04:04:07.751Z,8.93
2023-03-30T04:06:34.485Z,9.77
2023-03-30T04:09:01.849Z,11.10
2023-03-30T04:11:28.481Z,10.83
2023-03-30T04:13:55.144Z,9.17
2023-03-30T04:16:21.877Z,8.43
2023-03-30T04:18:48.534Z,7.37
2023-03-30T04:21:17.722Z,8.80
2023-03-30T04:23:49.338Z,10.87
2023-03-30T04:26:17.352Z,12.27
2023-03-30T04:28:44.019Z,7.83
2023-03-30T04:31:12.680Z,10.80
2023-03-30T04:33:52.025Z,13.03
2023-03-30T04:36:20.577Z,12.37
2023-03-30T04:39:06.481Z,17.53
2023-03-30T04:41:33.784Z,8.97
2023-03-30T04:44:05.884Z,15.53
2023-03-30T04:46:33.073Z,15.87
2023-03-30T04:48:59.846Z,14.73
2023-03-30T04:51:26.984Z,14.93
2023-03-30T04:53:53.616Z,15.57
2023-03-30T04:56:20.516Z,13.33
2023-03-30T04:58:47.180Z,16.90
2023-03-30T05:01:14.410Z,16.20
2023-03-30T05:03:41.069Z,13.30
2023-03-30T05:06:08.153Z,14.40
2023-03-30T05:08:35.105Z,17.13
2023-03-30T05:11:05.008Z,14.43
2023-03-30T05:13:31.917Z,11.93
2023-03-30T05:15:58.894Z,19.60
2023-03-30T05:18:25.858Z,21.03
2023-03-30T05:20:55.922Z,19.07
2023-03-30T05:23:24.386Z,19.17
2023-03-30T05:25:51.631Z,12.17
2023-03-30T05:28:18.358Z,13.77
2023-03-30T05:30:46.640Z,12.30
2023-03-30T05:33:13.423Z,9.47
2023-03-30T05:35:40.437Z,14.17
2023-03-30T05:38:07.332Z,14.40
2023-03-30T05:40:34.172Z,16.60
2023-03-30T05:43:01.410Z,13.00
2023-03-30T05:45:28.055Z,17.60
2023-03-30T05:47:54.747Z,8.37
2023-03-30T05:50:21.996Z,15.33
2023-03-30T05:52:49.276Z,13.13
2023-03-30T05:55:16.372Z,11.97
2023-03-30T05:57:43.249Z,11.60
2023-03-30T06:00:13.073Z,15.30
2023-03-30T06:02:40.757Z,16.37
2023-03-30T06:05:08.417Z,16.10
2023-03-30T06:07:35.433Z,14.20
2023-03-30T06:10:02.115Z,17.27
2023-03-30T06:12:28.809Z,11.50
2023-03-30T06:14:55.497Z,14.50
2023-03-30T06:17:22.184Z,13.90
2023-03-30T06:19:48.907Z,16.53
2023-03-30T06:22:15.526Z,19.73
2023-03-30T06:24:42.261Z,14.33
2023-03-30T06:27:09.144Z,12.70
2023-03-30T06:29:35.833Z,19.50
2023-03-30T06:32:03.666Z,19.80
2023-03-30T06:34:30.905Z,12.60
2023-03-30T06:36:58.148Z,17.17
2023-03-30T06:39:25.508Z,21.70
2023-03-30T06:41:52.183Z,11.70
2023-03-30T06:44:19.699Z,13.13
2023-03-30T06:46:46.974Z,19.80
2023-03-30T06:49:14.293Z,21.80
2023-03-30T06:51:41.879Z,16.77
2023-03-30T06:54:08.639Z,17.07
2023-03-30T06:56:35.263Z,16.73
2023-03-30T06:59:02.953Z,20.03
2023-03-30T07:01:29.688Z,9.50
2023-03-30T07:03:56.615Z,12.37
2023-03-30T07:06:24.284Z,20.67
2023-03-30T07:08:51.057Z,18.27
2023-03-30T07:11:17.686Z,19.20
2023-03-30T07:13:44.306Z,15.30
2023-03-30T07:16:10.938Z,17.33
2023-03-30T07:18:37.610Z,19.13
2023-03-30T07:21:05.107Z,16.93
2023-03-30T07:23:31.994Z,16.93
2023-03-30T07:25:58.636Z,16.87
2023-03-30T07:28:25.589Z,13.20
2023-03-30T07:30:52.696Z,19.10
2023-03-30T07:34:00.537Z,14.73
2023-03-30T07:36:27.867Z,15.37
2023-03-30T07:38:54.710Z,21.73
2023-03-30T07:41:21.428Z,16.27
2023-03-30T07:48:22.897Z,18.80
2023-03-30T07:50:51.720Z,11.77
2023-03-30T07:53:18.376Z,17.90
2023-03-30T07:55:45.163Z,16.63
2023-03-30T07:58:11.789Z,15.07
2023-03-30T08:00:39.670Z,16.03
2023-03-30T08:03:06.291Z,12.40
2023-03-30T08:05:32.966Z,17.97
2023-03-30T08:07:59.586Z,13.87
2023-03-30T08:10:26.220Z,15.17
2023-03-30T08:12:52.833Z,22.07
2023-03-30T08:15:19.864Z,21.70
2023-03-30T08:17:46.933Z,21.30
2023-03-30T08:20:13.587Z,16.20
2023-03-30T08:22:40.248Z,12.70
2023-03-30T08:25:07.241Z,17.63
2023-03-30T08:27:33.901Z,14.00
2023-03-30T08:30:00.667Z,15.00
2023-03-30T08:32:27.357Z,12.03
2023-03-30T08:34:54.960Z,10.17
2023-03-30T08:37:21.677Z,15.37
2023-03-30T08:39:48.731Z,11.40
2023-03-30T08:43:03.685Z,11.80
2023-03-30T08:45:41.005Z,12.93
2023-03-30T08:48:24.845Z,18.57
2023-03-30T08:51:02.823Z,19.23
2023-03-30T08:53:32.339Z,15.80
2023-03-30T08:56:08.896Z,14.93
2023-03-30T08:58:53.745Z,14.80
2023-03-30T09:02:03.525Z,18.30
2023-03-30T09:04:57.853Z,17.87
2023-03-30T09:07:35.672Z,14.57
2023-03-30T09:10:03.695Z,13.10
2023-03-30T09:12:52.262Z,14.70
2023-03-30T09:15:50.521Z,14.00
2023-03-30T09:18:40.561Z,14.13
2023-03-30T09:21:11.831Z,11.33
2023-03-30T09:23:39.598Z,10.97
2023-03-30T09:26:06.500Z,10.47
2023-03-30T09:28:49.454Z,10.83
2023-03-30T09:31:32.742Z,9.57
2023-03-30T09:34:14.354Z,15.23
2023-03-30T09:37:03.060Z,11.50
2023-03-30T09:39:33.512Z,7.87
2023-03-30T09:42:24.930Z,12.50
2023-03-30T09:45:22.395Z,12.90
2023-03-30T09:47:49.070Z,13.27
2023-03-30T09:50:26.707Z,11.60
2023-03-30T09:53:04.996Z,12.67
2023-03-30T09:55:32.914Z,13.93
2023-03-30T09:58:21.198Z,15.37
2023-03-30T10:01:12.524Z,13.27
2023-03-30T10:03:41.087Z,11.50
2023-03-30T10:06:12.837Z,15.00
2023-03-30T10:08:59.897Z,18.10
2023-03-30T10:11:41.049Z,15.53
2023-03-30T10:14:28.275Z,14.73
2023-03-30T10:16:57.167Z,12.93
2023-03-30T10:19:24.944Z,18.77
2023-03-30T10:21:59.852Z,15.43
2023-03-30T10:24:32.014Z,13.40
2023-03-30T10:27:05.559Z,14.20
2023-03-30T10:29:32.516Z,7.60
2023-03-30T10:32:04.152Z,16.03
2023-03-30T10:34:36.414Z,12.57
2023-03-30T10:37:09.053Z,10.43
2023-03-30T10:39:39.525Z,15.23
2023-03-30T10:42:07.922Z,13.03
2023-03-30T10:44:53.565Z,17.17
2023-03-30T10:47:45.913Z,13.13
2023-03-30T10:50:36.145Z,18.30
2023-03-30T10:53:22.059Z,15.70
2023-03-30T10:56:07.721Z,14.17
2023-03-30T10:58:55.153Z,11.03
2023-03-30T11:01:34.706Z,14.37
2023-03-30T11:04:20.562Z,15.10
2023-03-30T11:06:53.100Z,10.10
2023-03-30T11:09:27.855Z,11.27
2023-03-30T11:12:05.314Z,9.67
2023-03-30T11:14:56.762Z,8.80
2023-03-30T11:17:29.084Z,8.07
2023-03-30T11:19:57.803Z,11.13
2023-03-30T11:22:36.197Z,8.57
2023-03-30T11:25:17.760Z,8.07
2023-03-30T11:27:56.816Z,6.90
2023-03-30T11:30:31.503Z,6.50
2023-03-30T11:33:19.791Z,6.53
2023-03-30T11:35:57.271Z,7.50
2023-03-30T11:38:47.872Z,6.00
2023-03-30T11:41:42.440Z,6.67
2023-03-30T11:44:11.806Z,8.57
2023-03-30T11:46:41.250Z,4.03
2023-03-30T11:49:39.422Z,6.70
2023-03-30T11:52:48.453Z,4.97
2023-03-30T11:55:24.248Z,4.90
2023-03-30T11:58:20.691Z,4.23
2023-03-30T12:01:10.628Z,5.03
2023-03-30T12:03:44.233Z,8.27
2023-03-30T12:06:32.133Z,4.73
2023-03-30T12:09:24.608Z,3.27
2023-03-30T12:12:18.640Z,8.90
2023-03-30T12:15:04.847Z,4.60
2023-03-30T12:18:00.529Z,5.10
2023-03-30T12:21:09.086Z,4.67
2023-03-30T12:24:07.582Z,5.87
2023-03-30T12:26:35.094Z,5.37
2023-03-30T12:29:44.469Z,3.07
2023-03-30T12:31:58.963Z,4.60
2023-03-30T12:34:33.154Z,3.07
2023-03-30T12:37:04.530Z,5.00
2023-03-30T12:39:44.731Z,4.93
2023-03-30T12:42:34.926Z,3.50
2023-03-30T12:45:25.309Z,3.50
2023-03-30T12:48:14.296Z,2.83
2023-03-30T12:51:15.167Z,4.00
2023-03-30T12:53:51.081Z,4.90
2023-03-30T12:56:27.106Z,2.90
2023-03-30T12:59:18.601Z,5.40
2023-03-30T13:02:20.690Z,4.80
2023-03-30T13:04:49.112Z,3.10
2023-03-30T13:07:27.124Z,2.43
2023-03-30T13:09:59.294Z,3.53
2023-03-30T13:12:41.938Z,3.77
2023-03-30T13:15:30.843Z,4.10
2023-03-30T13:18:00.773Z,3.00
2023-03-30T13:20:47.303Z,2.67
2023-03-30T13:23:14.198Z,7.40
2023-03-30T13:26:00.496Z,3.57
2023-03-30T13:29:04.300Z,5.10
2023-03-30T13:31:55.435Z,2.53
2023-03-30T13:34:58.476Z,6.00
2023-03-30T13:38:10.308Z,3.67
2023-03-30T13:41:03.911Z,3.13
2023-03-30T13:43:49.474Z,3.03
2023-03-30T13:46:21.082Z,4.00
2023-03-30T13:48:59.587Z,2.10
2023-03-30T13:51:29.815Z,5.53
2023-03-30T13:54:05.025Z,5.97
2023-03-30T13:56:39.107Z,5.47
2023-03-30T13:59:16.046Z,4.57
2023-03-30T14:01:56.644Z,3.37
2023-03-30T14:04:29.779Z,3.30
2023-03-30T14:06:58.187Z,3.87
2023-03-30T14:09:27.926Z,3.40
2023-03-30T14:12:00.601Z,2.77
2023-03-30T14:14:35.117Z,6.37
2023-03-30T14:17:11.821Z,2.60
2023-03-30T14:19:54.050Z,3.50
2023-03-30T14:22:27.187Z,4.50
2023-03-30T14:25:22.607Z,4.80
2023-03-30T14:27:49.569Z,3.73
2023-03-30T14:30:25.642Z,3.23
2023-03-30T14:33:06.961Z,8.67
2023-03-30T14:35:34.457Z,6.00
2023-03-30T14:38:15.995Z,5.57
2023-03-30T14:40:44.212Z,3.83
2023-03-30T14:43:41.181Z,4.60
2023-03-30T14:46:11.706Z,3.27
2023-03-30T14:48:42.940Z,6.90
2023-03-30T14:51:23.682Z,5.13
2023-03-30T14:53:52.417Z,5.90
2023-03-30T14:56:20.907Z,2.97
2023-03-30T14:58:49.218Z,3.50
2023-03-30T15:01:20.605Z,3.13
2023-03-30T15:03:48.629Z,5.23
2023-03-30T15:06:22.108Z,3.47
2023-03-30T15:08:50.883Z,7.13
2023-03-30T15:11:26.980Z,4.30
2023-03-30T15:13:57.905Z,6.37
2023-03-30T15:16:29.827Z,4.00
2023-03-30T15:19:13.685Z,4.57
2023-03-30T15:21:40.843Z,3.37
2023-03-30T15:24:09.467Z,4.40
2023-03-30T15:26:44.543Z,3.07
2023-03-30T15:29:12.636Z,5.47
2023-03-30T15:31:39.406Z,4.90
2023-03-30T15:34:13.834Z,4.00
2023-03-30T15:36:41.123Z,2.50
2023-03-30T15:39:33.538Z,4.37
2023-03-30T15:42:04.429Z,3.63
2023-03-30T15:44:41.238Z,4.00
2023-03-30T15:47:16.505Z,7.57
2023-03-30T15:49:49.878Z,4.67
2023-03-30T15:52:24.157Z,3.10
2023-03-30T15:54:55.554Z,3.63
2023-03-30T15:57:30.063Z,2.50
2023-03-30T16:00:11.416Z,3.00
2023-03-30T16:02:41.549Z,2.20
2023-03-30T16:05:20.778Z,8.10
2023-03-30T16:07:47.849Z,2.60
2023-03-30T16:10:16.604Z,2.47
2023-03-30T16:12:46.104Z,4.43
2023-03-30T16:15:18.458Z,0.90
2023-03-30T16:17:45.734Z,2.97
2023-03-30T16:20:25.080Z,1.87
2023-03-30T16:22:51.990Z,2.23
2023-03-30T16:25:28.457Z,2.93
2023-03-30T16:28:04.842Z,4.40
2023-03-30T16:30:34.286Z,2.10
2023-03-30T16:33:04.666Z,2.60
2023-03-30T16:35:34.837Z,2.30
2023-03-30T16:38:01.890Z,5.93
2023-03-30T16:40:40.884Z,3.23
2023-03-30T16:43:12.041Z,3.53
2023-03-30T16:45:38.776Z,4.17
2023-03-30T16:48:06.252Z,3.27
2023-03-30T16:50:44.716Z,4.13
2023-03-30T16:53:11.840Z,3.13
2023-03-30T16:55:39.888Z,5.20
2023-03-30T16:58:08.252Z,3.27
2023-03-30T17:00:41.139Z,2.23
2023-03-30T17:03:08.503Z,3.67
2023-03-30T17:05:35.535Z,2.17
2023-03-30T17:08:07.687Z,4.33
2023-03-30T17:10:39.292Z,4.07
2023-03-30T17:13:06.452Z,3.03
2023-03-30T17:15:35.084Z,4.13
2023-03-30T17:18:01.958Z,2.60
2023-03-30T17:20:44.116Z,3.50
2023-03-30T17:23:11.203Z,6.17
2023-03-30T17:25:39.882Z,3.10
2023-03-30T17:28:08.631Z,4.13
2023-03-30T17:30:37.285Z,2.97
2023-03-30T17:33:04.409Z,3.93
2023-03-30T17:35:31.065Z,10.17
2023-03-30T17:37:57.748Z,6.83
2023-03-30T17:40:29.078Z,2.70
2023-03-30T17:42:56.274Z,4.57
2023-03-30T17:45:25.891Z,1.93
2023-03-30T17:47:53.545Z,1.77
2023-03-30T17:50:39.302Z,1.90
2023-03-30T17:53:06.081Z,3.67
2023-03-30T17:55:33.483Z,2.77
2023-03-30T17:58:00.433Z,4.10
2023-03-30T18:00:32.289Z,7.43
2023-03-30T18:03:00.036Z,8.20
2023-03-30T18:05:29.264Z,6.13
2023-03-30T18:07:56.110Z,3.70
2023-03-30T18:10:25.709Z,3.73
2023-03-30T18:12:53.830Z,6.67
2023-03-30T18:15:25.560Z,5.03
2023-03-30T18:17:52.646Z,2.77
2023-03-30T18:20:23.634Z,2.00
2023-03-30T18:22:51.118Z,6.83
2023-03-30T18:25:29.271Z,2.77
2023-03-30T18:27:58.898Z,8.83
2023-03-30T18:30:37.455Z,3.70
2023-03-30T18:33:05.521Z,6.60
2023-03-30T18:35:34.458Z,4.60
2023-03-30T18:38:02.258Z,4.17
2023-03-30T18:40:45.189Z,4.47
2023-03-30T18:43:12.495Z,2.97
2023-03-30T18:45:41.940Z,3.47
2023-03-30T18:48:11.812Z,3.10
2023-03-30T18:50:41.440Z,4.63
2023-03-30T18:53:11.005Z,2.17
2023-03-30T18:55:40.254Z,3.93
2023-03-30T18:58:18.406Z,4.40
2023-03-30T19:00:45.171Z,4.37
2023-03-30T19:03:14.351Z,4.00
2023-03-30T19:05:42.302Z,4.53
2023-03-30T19:08:13.922Z,5.33
2023-03-30T19:10:42.518Z,2.40
2023-03-30T19:13:13.532Z,4.03
2023-03-30T19:15:40.687Z,2.37
2023-03-30T19:18:07.640Z,3.13
2023-03-30T19:20:41.143Z,5.13
2023-03-30T19:23:09.765Z,4.87
2023-03-30T19:25:36.793Z,4.83
2023-03-30T19:28:04.547Z,2.83
2023-03-30T19:30:34.137Z,2.40
2023-03-30T19:33:05.025Z,4.53
2023-03-30T19:35:34.335Z,3.47
2023-03-30T19:38:01.012Z,8.70
2023-03-30T19:40:28.204Z,3.70
2023-03-30T19:42:54.896Z,4.00
2023-03-30T19:45:23.877Z,3.97
2023-03-30T19:47:51.820Z,4.23
2023-03-30T19:50:23.091Z,7.33
2023-03-30T19:52:50.931Z,2.00
2023-03-30T19:55:19.261Z,2.93
2023-03-30T19:57:46.525Z,4.30
2023-03-30T20:00:18.155Z,4.27
2023-03-30T20:02:50.962Z,1.90
2023-03-30T20:05:22.189Z,3.50
2023-03-30T20:07:49.961Z,1.73
2023-03-30T20:10:22.755Z,5.37
2023-03-30T20:12:50.558Z,3.13
2023-03-30T20:15:18.571Z,6.80
2023-03-30T20:17:45.635Z,3.60
2023-03-30T20:20:16.780Z,4.70
2023-03-30T20:22:45.265Z,1.90
2023-03-30T20:25:13.844Z,3.03
2023-03-30T20:27:40.540Z,2.80
2023-03-30T20:30:08.067Z,4.83
2023-03-30T20:32:35.358Z,7.07
2023-03-30T20:35:02.175Z,4.67
2023-03-30T20:37:28.884Z,3.03
2023-03-30T20:40:03.542Z,4.30
2023-03-30T20:42:33.670Z,5.30
2023-03-30T20:45:01.069Z,4.20
2023-03-30T20:47:30.652Z,3.40
2023-03-30T20:49:58.569Z,3.47
2023-03-30T20:52:25.828Z,4.93
2023-03-30T20:54:52.869Z,2.20
2023-03-30T20:57:23.337Z,3.97
2023-03-30T20:59:52.530Z,2.60
2023-03-30T21:02:19.509Z,2.87
2023-03-30T21:04:46.372Z,1.10
2023-03-30T21:07:14.888Z,2.93
2023-03-30T21:09:43.007Z,1.83
2023-03-30T21:12:09.976Z,2.57
2023-03-30T21:14:36.700Z,3.23
2023-03-30T21:17:03.754Z,2.47
2023-03-30T21:19:30.487Z,3.40
2023-03-30T21:21:57.301Z,2.40
2023-03-30T21:24:24.020Z,2.67
2023-03-30T21:26:50.928Z,1.90
2023-03-30T21:29:18.084Z,2.00
2023-03-30T21:31:44.920Z,1.43
2023-03-30T21:34:12.587Z,1.90
2023-03-30T21:36:39.508Z,2.93
2023-03-30T21:39:06.468Z,3.10
2023-03-30T21:41:33.252Z,3.70
2023-03-30T21:43:59.916Z,4.13
2023-03-30T21:46:28.199Z,2.23
2023-03-30T21:48:54.891Z,3.13
2023-03-30T21:51:27.350Z,2.90
2023-03-30T21:53:55.189Z,5.27
2023-03-30T21:56:24.370Z,5.47
2023-03-30T21:58:51.678Z,1.60
2023-03-30T22:01:20.244Z,4.03
2023-03-30T22:03:47.117Z,4.27
2023-03-30T22:06:16.188Z,3.77
2023-03-30T22:08:45.177Z,2.47
2023-03-30T22:11:23.971Z,4.77
2023-03-30T22:13:52.254Z,3.57
2023-03-30T22:16:22.439Z,1.93
2023-03-30T22:18:50.451Z,2.47
2023-03-30T22:21:24.099Z,5.03
2023-03-30T22:23:51.559Z,1.97
2023-03-30T22:26:18.188Z,6.03
2023-03-30T22:28:44.912Z,3.40
2023-03-30T22:31:14.358Z,4.43
2023-03-30T22:33:41.453Z,3.43
2023-03-30T22:36:20.401Z,2.57
2023-03-30T22:38:48.311Z,3.00
2023-03-30T22:41:17.727Z,4.30
2023-03-30T22:43:45.198Z,3.13
2023-03-30T22:46:12.060Z,3.30
2023-03-30T22:48:41.277Z,3.90
2023-03-30T22:51:08.601Z,2.53
2023-03-30T22:53:35.694Z,3.90
2023-03-30T22:56:02.563Z,3.30
2023-03-30T22:58:29.666Z,3.00
2023-03-30T23:01:05.902Z,2.10
2023-03-30T23:03:32.747Z,3.43
2023-03-30T23:06:02.466Z,5.33
2023-03-30T23:08:30.203Z,7.87
2023-03-30T23:11:03.995Z,3.97
2023-03-30T23:13:31.599Z,3.93
2023-03-30T23:16:01.471Z,2.97
2023-03-30T23:18:28.165Z,2.27
2023-03-30T23:20:57.905Z,3.63
2023-03-30T23:23:24.749Z,1.87
2023-03-30T23:25:51.918Z,5.87
2023-03-30T23:28:18.994Z,4.47
2023-03-30T23:30:46.359Z,3.87
2023-03-30T23:33:13.521Z,3.90
2023-03-30T23:35:43.127Z,5.17
2023-03-30T23:38:10.365Z,2.27
2023-03-30T23:40:36.968Z,4.10
2023-03-30T23:43:03.633Z,3.47
2023-03-30T23:45:30.376Z,3.37
2023-03-30T23:47:57.060Z,4.67
2023-03-30T23:50:23.705Z,6.50
2023-03-30T23:52:50.504Z,2.60
2023-03-30T23:55:18.430Z,5.30
2023-03-30T23:57:45.563Z,2.93
